Terminal Aerodrome Forecast
Issued by NWS

Home | Current Version | Previous Version | Text Only | Print | Product List | Glossary On
Versions: 1 2 3 4 5 6 7 8 9 10 11 12 13 14 15 16 17 18 19 20 21 22 23 24 25 26 27 28 29 30 31 32 33 34 35 36 37 38 39 40
000
FTUS41 KOKX 240133 AAA
TAFGON
TAF AMD
KGON 240133Z 2402/2424 04029G48KT 2SM +RAPL OVC010
     FM240500 04031G48KT 2SM +RA OVC010
     FM240800 05027G45KT 3SM RA OVC008
     FM240900 05024G41KT 3SM RA OVC007
     FM241100 04022G38KT 5SM -RA OVC007
     FM241800 02011KT 5SM -RA OVC010
     FM241900 02010KT 5SM -RA OVC009
     FM242300 36010KT 5SM -RA OVC007=

USA.gov is the U.S. government's official web portal to all federal, state and local government web resources and services.